createdAt,value
2018-06-18T00:02:01.618Z,19.14
2018-06-18T00:04:30.704Z,19.30
2018-06-18T00:06:59.795Z,19.25
2018-06-18T00:09:28.872Z,19.21
2018-06-18T00:11:57.979Z,19.20
2018-06-18T00:14:27.056Z,19.23
2018-06-18T00:16:56.155Z,19.25
2018-06-18T00:19:25.237Z,19.23
2018-06-18T00:21:54.335Z,19.06
2018-06-18T00:24:23.411Z,19.05
2018-06-18T00:26:52.528Z,19.12
2018-06-18T00:29:21.613Z,19.14
2018-06-18T00:31:50.711Z,19.19
2018-06-18T00:34:19.790Z,19.20
2018-06-18T00:36:48.867Z,19.15
2018-06-18T00:39:17.959Z,19.06
2018-06-18T00:41:47.044Z,19.05
2018-06-18T00:44:16.145Z,18.99
2018-06-18T00:46:45.242Z,18.98
2018-06-18T00:49:14.344Z,18.99
2018-06-18T00:51:43.425Z,19.03
2018-06-18T00:54:12.525Z,18.96
2018-06-18T00:56:41.606Z,18.89
2018-06-18T00:59:10.707Z,18.91
2018-06-18T01:01:39.788Z,18.92
2018-06-18T01:04:08.896Z,18.90
2018-06-18T01:06:37.976Z,18.89
2018-06-18T01:09:09.560Z,18.91
2018-06-18T01:11:38.632Z,18.75
2018-06-18T01:14:07.736Z,18.81
2018-06-18T01:16:36.820Z,18.89
2018-06-18T01:19:05.924Z,18.90
2018-06-18T01:21:35.005Z,18.90
2018-06-18T01:24:13.561Z,18.85
2018-06-18T01:26:42.644Z,18.84
2018-06-18T01:29:11.772Z,18.88
2018-06-18T01:31:40.852Z,18.88
2018-06-18T01:34:26.763Z,18.84
2018-06-18T01:36:55.858Z,18.82
2018-06-18T01:39:24.960Z,18.82
2018-06-18T01:41:54.080Z,18.74
2018-06-18T01:44:23.201Z,18.79
2018-06-18T01:46:52.292Z,18.82
2018-06-18T01:49:21.391Z,18.86
2018-06-18T01:51:50.464Z,18.77
2018-06-18T01:54:19.565Z,18.70
2018-06-18T01:56:48.647Z,18.72
2018-06-18T01:59:17.736Z,18.78
2018-06-18T02:01:46.836Z,18.73
2018-06-18T02:04:15.918Z,18.71
2018-06-18T02:06:45.020Z,18.72
2018-06-18T02:09:14.096Z,18.73
2018-06-18T02:11:43.196Z,18.69
2018-06-18T02:14:12.327Z,18.72
2018-06-18T02:16:41.428Z,18.62
2018-06-18T02:19:10.504Z,18.55
2018-06-18T02:21:40.012Z,18.58
2018-06-18T02:24:09.092Z,18.61
2018-06-18T02:26:38.187Z,18.53
2018-06-18T02:29:12.492Z,18.53
2018-06-18T02:31:46.860Z,18.49
2018-06-18T02:34:21.325Z,18.45
2018-06-18T02:36:55.732Z,18.43
2018-06-18T02:39:24.806Z,18.47
2018-06-18T02:41:53.912Z,18.36
2018-06-18T02:44:22.993Z,18.40
2018-06-18T02:46:52.106Z,18.40
2018-06-18T02:49:21.182Z,18.38
2018-06-18T02:51:50.289Z,18.44
2018-06-18T02:54:19.365Z,18.36
2018-06-18T02:56:54.887Z,18.38
2018-06-18T02:59:23.968Z,18.27
2018-06-18T03:01:53.092Z,18.31
2018-06-18T03:04:22.160Z,18.33
2018-06-18T03:06:51.320Z,18.29
2018-06-18T03:09:20.396Z,18.34
2018-06-18T03:11:49.476Z,18.20
2018-06-18T03:14:18.569Z,18.08
2018-06-18T03:16:47.644Z,17.98
2018-06-18T03:19:22.072Z,18.05
2018-06-18T03:21:56.469Z,18.11
2018-06-18T03:24:30.831Z,18.09
2018-06-18T03:27:05.252Z,18.04
2018-06-18T03:29:35.636Z,18.00
2018-06-18T03:32:08.511Z,18.09
2018-06-18T03:34:37.599Z,17.95
2018-06-18T03:37:08.334Z,17.94
2018-06-18T03:39:37.372Z,17.96
2018-06-18T03:42:06.888Z,18.02
2018-06-18T03:45:13.516Z,18.05
2018-06-18T03:47:42.595Z,17.92
2018-06-18T03:50:11.700Z,17.93
2018-06-18T03:52:40.781Z,17.92
2018-06-18T03:55:13.324Z,17.91
2018-06-18T03:57:42.462Z,17.91
2018-06-18T04:00:11.532Z,18.02
2018-06-18T04:03:03.516Z,18.02
2018-06-18T04:05:38.084Z,17.94
2018-06-18T04:08:10.375Z,18.00
2018-06-18T04:10:44.964Z,18.00
2018-06-18T04:13:14.040Z,18.07
2018-06-18T04:15:43.143Z,18.04
2018-06-18T04:18:12.243Z,18.19
2018-06-18T04:20:47.518Z,18.29
2018-06-18T04:23:16.596Z,18.25
2018-06-18T04:25:45.748Z,18.24
2018-06-18T04:28:14.836Z,18.23
2018-06-18T04:30:45.355Z,18.22
2018-06-18T04:33:16.293Z,18.14
2018-06-18T04:35:45.949Z,18.22
2018-06-18T04:38:15.041Z,18.35
2018-06-18T04:40:44.139Z,18.58
2018-06-18T04:43:18.580Z,18.74
2018-06-18T04:45:51.876Z,18.86
2018-06-18T04:48:26.240Z,18.75
2018-06-18T04:50:59.287Z,18.69
2018-06-18T04:53:28.364Z,18.71
2018-06-18T04:55:57.465Z,18.72
2018-06-18T04:58:26.552Z,18.78
2018-06-18T05:01:09.512Z,18.65
2018-06-18T05:03:38.604Z,18.65
2018-06-18T05:06:07.700Z,18.78
2018-06-18T05:09:00.857Z,18.85
2018-06-18T05:11:29.953Z,18.92
2018-06-18T05:14:05.074Z,18.93
2018-06-18T05:16:34.249Z,18.93
2018-06-18T05:19:03.327Z,18.90
2018-06-18T05:21:32.424Z,18.86
2018-06-18T05:24:01.505Z,18.84
2018-06-18T05:26:31.168Z,18.83
2018-06-18T05:29:00.252Z,18.88
2018-06-18T05:31:29.372Z,18.86
2018-06-18T05:33:58.452Z,18.81
2018-06-18T05:36:27.552Z,18.73
2018-06-18T05:38:56.640Z,18.76
2018-06-18T05:41:25.743Z,18.77
2018-06-18T05:43:54.820Z,18.80
2018-06-18T05:46:23.940Z,18.81
2018-06-18T05:48:53.032Z,18.89
2018-06-18T05:51:22.144Z,18.88
2018-06-18T05:53:51.221Z,18.94
2018-06-18T05:56:20.328Z,19.08
2018-06-18T05:58:49.404Z,19.23
2018-06-18T06:01:19.455Z,19.31
2018-06-18T06:03:49.437Z,19.33
2018-06-18T06:06:19.553Z,19.46
2018-06-18T06:08:49.463Z,19.78
2018-06-18T06:11:18.548Z,20.02
2018-06-18T06:13:47.652Z,19.99
2018-06-18T06:16:16.740Z,19.93
2018-06-18T06:18:45.833Z,20.02
2018-06-18T06:21:15.517Z,19.89
2018-06-18T06:23:45.175Z,19.79
2018-06-18T06:26:14.805Z,19.69
2018-06-18T06:28:43.893Z,19.84
2018-06-18T06:31:12.968Z,19.78
2018-06-18T06:33:42.177Z,19.75
2018-06-18T06:36:11.943Z,19.76
2018-06-18T06:38:41.040Z,19.77
2018-06-18T06:41:10.812Z,19.73
2018-06-18T06:43:39.910Z,19.77
2018-06-18T06:46:09.012Z,19.88
2018-06-18T06:48:38.124Z,19.79
2018-06-18T06:51:07.220Z,19.70
2018-06-18T06:53:36.353Z,19.74
2018-06-18T06:56:05.568Z,19.86
2018-06-18T06:58:34.676Z,19.75
2018-06-18T07:01:03.775Z,19.73
2018-06-18T07:03:32.872Z,19.65
2018-06-18T07:06:01.965Z,19.51
2018-06-18T07:08:31.068Z,19.33
2018-06-18T07:11:00.169Z,19.28
2018-06-18T07:13:29.451Z,19.40
2018-06-18T07:15:58.465Z,19.63
2018-06-18T07:18:27.592Z,19.67
2018-06-18T07:20:56.701Z,19.82
2018-06-18T07:23:29.252Z,19.78
2018-06-18T07:25:59.379Z,19.76
2018-06-18T07:28:29.417Z,19.90
2018-06-18T07:30:59.478Z,19.88
2018-06-18T07:33:29.745Z,19.88
2018-06-18T07:36:01.186Z,19.90
2018-06-18T07:38:31.143Z,19.86
2018-06-18T07:41:03.159Z,19.96
2018-06-18T07:43:33.235Z,19.87
2018-06-18T07:46:03.347Z,19.78
2018-06-18T07:48:33.601Z,19.75
2018-06-18T07:51:03.597Z,19.76
2018-06-18T07:53:34.086Z,19.81
2018-06-18T07:56:04.843Z,19.95
2018-06-18T07:58:35.507Z,20.06
2018-06-18T08:01:05.410Z,20.16
2018-06-18T08:03:36.264Z,20.36
2018-06-18T08:06:06.259Z,20.56
2018-06-18T08:08:37.016Z,20.59
2018-06-18T08:11:06.978Z,20.72
2018-06-18T08:13:37.404Z,20.77
2018-06-18T08:16:07.563Z,20.83
2018-06-18T08:18:37.698Z,20.94
2018-06-18T08:21:07.989Z,20.81
2018-06-18T08:23:37.992Z,20.92
2018-06-18T08:26:07.188Z,21.04
2018-06-18T08:28:36.337Z,21.14
2018-06-18T08:31:05.486Z,21.12
2018-06-18T08:33:35.171Z,21.27
2018-06-18T08:36:04.442Z,21.38
2018-06-18T08:38:33.530Z,21.39
2018-06-18T08:41:04.088Z,21.24
2018-06-18T08:43:35.120Z,21.22
2018-06-18T08:46:05.179Z,21.29
2018-06-18T08:48:40.639Z,21.46
2018-06-18T08:51:16.551Z,21.47
2018-06-18T08:53:51.610Z,21.27
2018-06-18T08:56:28.132Z,21.04
2018-06-18T08:59:03.537Z,20.83
2018-06-18T09:01:39.530Z,20.79
2018-06-18T09:04:15.766Z,20.87
2018-06-18T09:09:27.117Z,20.81
2018-06-18T09:11:58.090Z,20.90
2018-06-18T09:14:28.584Z,20.83
2018-06-18T09:17:02.439Z,20.90
2018-06-18T09:19:34.997Z,20.80
2018-06-18T09:22:06.635Z,21.00
2018-06-18T09:24:37.392Z,21.05
2018-06-18T09:27:14.655Z,21.18
2018-06-18T09:29:50.383Z,21.19
2018-06-18T09:32:21.822Z,21.23
2018-06-18T09:34:52.939Z,21.29
2018-06-18T09:37:24.911Z,21.42
2018-06-18T09:39:55.185Z,21.53
2018-06-18T09:42:26.794Z,21.64
2018-06-18T09:44:56.868Z,21.47
2018-06-18T09:47:27.619Z,21.43
2018-06-18T09:50:02.551Z,21.49
2018-06-18T09:52:37.937Z,21.53
2018-06-18T09:55:13.224Z,21.78
2018-06-18T09:57:48.633Z,22.03
2018-06-18T10:00:35.794Z,22.23
2018-06-18T10:03:07.560Z,22.50
2018-06-18T10:05:38.025Z,22.95
2018-06-18T10:08:07.218Z,23.07
2018-06-18T10:10:36.302Z,23.15
2018-06-18T10:13:05.401Z,22.90
2018-06-18T10:15:34.497Z,22.87
2018-06-18T10:18:03.593Z,22.82
2018-06-18T10:20:32.682Z,22.92
2018-06-18T10:23:01.976Z,22.99
2018-06-18T10:25:31.068Z,23.00
2018-06-18T10:28:00.217Z,23.15
2018-06-18T10:30:29.296Z,23.35
2018-06-18T10:34:06.572Z,23.37
2018-06-18T10:36:42.392Z,23.41
2018-06-18T10:39:16.880Z,23.43
2018-06-18T10:41:51.971Z,23.35
2018-06-18T10:44:23.098Z,23.32
2018-06-18T10:46:52.185Z,23.58
2018-06-18T10:49:21.324Z,23.39
2018-06-18T10:51:50.397Z,23.07
2018-06-18T10:54:19.528Z,23.20
2018-06-18T10:56:48.994Z,23.25
2018-06-18T10:59:18.101Z,23.29
2018-06-18T11:01:47.185Z,23.58
2018-06-18T11:04:21.732Z,23.70
2018-06-18T11:06:50.839Z,23.84
2018-06-18T11:09:23.141Z,24.03
2018-06-18T11:11:53.224Z,24.13
2018-06-18T11:14:22.328Z,24.12
2018-06-18T11:16:57.011Z,24.22
2018-06-18T11:19:31.348Z,24.16
2018-06-18T11:22:03.781Z,24.00
2018-06-18T11:24:38.181Z,23.74
2018-06-18T11:27:07.422Z,23.42
2018-06-18T11:29:36.382Z,23.54
2018-06-18T11:32:05.497Z,23.59
2018-06-18T11:34:35.319Z,23.70
2018-06-18T11:37:04.956Z,23.91
2018-06-18T11:39:34.043Z,24.10
2018-06-18T11:42:03.265Z,24.22
2018-06-18T11:44:32.291Z,24.34
2018-06-18T11:47:01.408Z,24.57
2018-06-18T11:49:30.487Z,24.57
2018-06-18T11:51:59.592Z,24.59
2018-06-18T11:54:28.756Z,24.59
2018-06-18T11:56:57.896Z,24.73
2018-06-18T12:00:30.557Z,24.80
2018-06-18T12:03:05.503Z,24.74
2018-06-18T12:05:40.053Z,24.72
2018-06-18T12:08:14.475Z,24.85
2018-06-18T12:10:43.788Z,25.06
2018-06-18T12:13:12.944Z,25.02
2018-06-18T12:15:42.084Z,25.86
2018-06-18T12:18:11.240Z,25.27
2018-06-18T12:20:40.349Z,24.93
2018-06-18T12:23:09.504Z,24.95
2018-06-18T12:25:38.609Z,24.99
2018-06-18T12:28:07.860Z,25.09
2018-06-18T12:30:36.908Z,25.35
2018-06-18T12:33:06.072Z,25.37
2018-06-18T12:35:35.220Z,25.28
2018-06-18T12:38:04.408Z,25.27
2018-06-18T12:40:33.486Z,25.34
2018-06-18T12:43:02.590Z,25.45
2018-06-18T12:45:37.057Z,25.46
2018-06-18T12:48:11.552Z,25.69
2018-06-18T12:50:47.549Z,25.73
2018-06-18T12:53:22.004Z,25.75
2018-06-18T12:55:56.466Z,25.67
2018-06-18T12:58:25.699Z,25.63
2018-06-18T13:00:54.764Z,25.58
2018-06-18T13:03:23.961Z,25.44
2018-06-18T13:05:52.997Z,25.21
2018-06-18T13:08:22.101Z,25.05
2018-06-18T13:10:51.165Z,25.30
2018-06-18T13:13:20.273Z,25.31
2018-06-18T13:15:49.419Z,25.32
2018-06-18T13:18:18.531Z,25.38
2018-06-18T13:20:47.608Z,25.46
2018-06-18T13:23:16.695Z,25.36
2018-06-18T13:25:45.776Z,25.39
2018-06-18T13:28:15.186Z,25.36
2018-06-18T13:30:44.718Z,25.22
2018-06-18T13:33:13.804Z,25.32
2018-06-18T13:35:42.892Z,25.24
2018-06-18T13:38:17.325Z,25.23
2018-06-18T13:40:51.893Z,25.16
2018-06-18T13:43:26.205Z,25.17
2018-06-18T13:46:00.754Z,25.23
2018-06-18T13:48:35.096Z,25.44
2018-06-18T13:51:04.660Z,25.38
2018-06-18T13:53:34.001Z,25.28
2018-06-18T13:56:03.068Z,25.21
2018-06-18T13:58:32.189Z,25.24
2018-06-18T14:01:01.321Z,25.32
2018-06-18T14:03:31.099Z,25.30
2018-06-18T14:06:00.173Z,25.26
2018-06-18T14:08:29.268Z,25.39
2018-06-18T14:10:58.395Z,25.67
2018-06-18T14:13:27.494Z,25.63
2018-06-18T14:15:56.570Z,25.60
2018-06-18T14:18:25.687Z,25.58
2018-06-18T14:20:54.790Z,25.43
2018-06-18T14:23:23.951Z,25.17
2018-06-18T14:25:53.067Z,25.09
2018-06-18T14:28:22.368Z,24.92
2018-06-18T14:30:56.853Z,24.93
2018-06-18T14:33:31.295Z,25.16
2018-06-18T14:36:05.737Z,25.21
2018-06-18T14:38:40.182Z,25.09
2018-06-18T14:41:09.512Z,25.16
2018-06-18T14:43:38.591Z,24.98
2018-06-18T14:46:07.854Z,24.88
2018-06-18T14:48:36.912Z,24.83
2018-06-18T14:51:05.887Z,24.71
2018-06-18T14:53:34.956Z,24.59
2018-06-18T14:56:11.426Z,24.58
2018-06-18T14:58:41.721Z,24.44
2018-06-18T15:01:10.820Z,24.47
2018-06-18T15:03:39.938Z,24.40
2018-06-18T15:06:09.020Z,24.39
2018-06-18T15:08:38.092Z,24.49
2018-06-18T15:11:07.208Z,24.55
2018-06-18T15:13:36.285Z,24.62
2018-06-18T15:16:10.881Z,24.73
2018-06-18T15:18:39.965Z,24.86
2018-06-18T15:21:09.092Z,24.89
2018-06-18T15:23:38.188Z,24.86
2018-06-18T15:26:07.307Z,24.86
2018-06-18T15:28:36.323Z,24.95
2018-06-18T15:31:05.432Z,25.02
2018-06-18T15:33:34.501Z,24.90
2018-06-18T15:36:03.604Z,24.60
2018-06-18T15:38:32.718Z,24.37
2018-06-18T15:41:01.752Z,24.27
2018-06-18T15:43:30.851Z,24.28
2018-06-18T15:45:59.953Z,24.18
2018-06-18T15:48:29.384Z,24.15
2018-06-18T15:50:58.472Z,24.22
2018-06-18T15:53:27.577Z,24.21
2018-06-18T15:55:56.660Z,24.12
2018-06-18T15:58:25.761Z,24.03
2018-06-18T16:00:54.844Z,24.06
2018-06-18T16:03:23.948Z,24.04
2018-06-18T16:05:53.164Z,24.04
2018-06-18T16:08:22.264Z,23.94
2018-06-18T16:10:51.423Z,23.93
2018-06-18T16:13:20.525Z,23.80
2018-06-18T16:15:49.605Z,23.75
2018-06-18T16:18:18.711Z,23.79
2018-06-18T16:20:47.793Z,23.82
2018-06-18T16:23:16.897Z,23.82
2018-06-18T16:25:45.973Z,23.85
2018-06-18T16:28:15.071Z,23.85
2018-06-18T16:30:44.153Z,23.63
2018-06-18T16:33:13.252Z,23.44
2018-06-18T16:35:42.337Z,23.34
2018-06-18T16:38:11.444Z,23.42
2018-06-18T16:40:40.524Z,23.47
2018-06-18T16:43:09.633Z,23.49
2018-06-18T16:45:38.729Z,23.49
2018-06-18T16:48:07.859Z,23.45
2018-06-18T16:50:36.961Z,23.63
2018-06-18T16:53:06.036Z,23.61
2018-06-18T16:55:35.188Z,23.65
2018-06-18T16:58:04.276Z,23.80
2018-06-18T17:00:33.476Z,23.74
2018-06-18T17:03:02.552Z,23.76
2018-06-18T17:05:31.753Z,23.78
2018-06-18T17:08:00.833Z,23.69
2018-06-18T17:10:29.924Z,23.63
2018-06-18T17:12:58.992Z,23.53
2018-06-18T17:15:28.084Z,23.59
2018-06-18T17:17:57.156Z,23.57
2018-06-18T17:20:26.247Z,23.46
2018-06-18T17:22:55.320Z,23.35
2018-06-18T17:25:24.412Z,23.34
2018-06-18T17:27:53.492Z,23.45
2018-06-18T17:30:22.981Z,23.45
2018-06-18T17:32:52.060Z,23.40
2018-06-18T17:35:21.157Z,23.54
2018-06-18T17:37:50.221Z,23.54
2018-06-18T17:40:19.315Z,23.49
2018-06-18T17:42:48.376Z,23.52
2018-06-18T17:45:17.475Z,23.51
2018-06-18T17:47:46.584Z,23.42
2018-06-18T17:50:16.167Z,23.33
2018-06-18T17:52:45.221Z,23.32
2018-06-18T17:55:14.308Z,23.34
2018-06-18T17:57:43.392Z,23.29
2018-06-18T18:00:12.484Z,23.42
2018-06-18T18:02:41.633Z,23.57
2018-06-18T18:05:10.704Z,23.58
2018-06-18T18:07:39.780Z,23.54
2018-06-18T18:10:08.881Z,23.44
2018-06-18T18:12:38.825Z,23.38
2018-06-18T18:15:07.924Z,23.24
2018-06-18T18:17:37.029Z,23.02
2018-06-18T18:20:06.121Z,22.91
2018-06-18T18:22:35.219Z,22.78
2018-06-18T18:25:04.293Z,22.84
2018-06-18T18:27:33.392Z,22.74
2018-06-18T18:30:03.528Z,22.67
2018-06-18T18:32:34.333Z,22.80
2018-06-18T18:35:04.114Z,22.86
2018-06-18T18:37:33.505Z,22.83
2018-06-18T18:40:03.253Z,22.69
2018-06-18T18:42:32.980Z,22.59
2018-06-18T18:45:02.482Z,22.72
2018-06-18T18:48:33.643Z,22.65
2018-06-18T18:51:03.784Z,22.67
2018-06-18T18:53:33.119Z,22.72
2018-06-18T18:56:14.420Z,22.77
2018-06-18T18:59:48.068Z,22.63
2018-06-18T19:02:17.157Z,22.62
2018-06-18T19:04:56.115Z,22.77
2018-06-18T19:07:31.983Z,22.80
2018-06-18T19:10:08.864Z,22.88
2018-06-18T19:12:38.200Z,22.90
2018-06-18T19:15:09.433Z,22.87
2018-06-18T19:17:39.289Z,22.85
2018-06-18T19:20:15.623Z,22.77
2018-06-18T19:22:45.102Z,22.63
2018-06-18T19:25:14.692Z,22.56
2018-06-18T19:27:44.335Z,22.53
2018-06-18T19:30:14.129Z,22.56
2018-06-18T19:32:43.771Z,22.42
2018-06-18T19:35:14.432Z,22.30
2018-06-18T19:37:44.283Z,22.26
2018-06-18T19:40:13.449Z,22.14
2018-06-18T19:42:42.505Z,22.05
2018-06-18T19:45:13.106Z,21.96
2018-06-18T19:47:47.057Z,22.01
2018-06-18T19:50:16.588Z,21.99
2018-06-18T19:52:45.656Z,22.05
2018-06-18T19:55:17.716Z,22.09
2018-06-18T19:57:46.800Z,22.11
2018-06-18T20:00:16.125Z,22.12
2018-06-18T20:02:45.240Z,22.14
2018-06-18T20:05:14.940Z,22.02
2018-06-18T20:07:51.261Z,21.90
2018-06-18T20:10:20.889Z,21.93
2018-06-18T20:12:51.029Z,22.01
2018-06-18T20:15:21.237Z,22.05
2018-06-18T20:17:51.674Z,22.13
2018-06-18T20:20:21.941Z,22.11
2018-06-18T20:22:52.167Z,22.00
2018-06-18T20:25:26.472Z,21.96
2018-06-18T20:27:56.991Z,21.92
2018-06-18T20:30:27.729Z,21.99
2018-06-18T20:32:58.116Z,21.98
2018-06-18T20:35:36.947Z,21.93
2018-06-18T20:38:08.581Z,21.89
2018-06-18T20:40:38.967Z,21.85
2018-06-18T20:43:10.084Z,21.78
2018-06-18T20:45:41.020Z,21.79
2018-06-18T20:48:13.138Z,21.81
2018-06-18T20:50:45.164Z,21.79
2018-06-18T20:53:19.468Z,21.86
2018-06-18T20:55:50.081Z,21.86
2018-06-18T20:58:21.334Z,21.84
2018-06-18T21:00:52.085Z,21.91
2018-06-18T21:03:23.029Z,21.91
2018-06-18T21:05:53.420Z,21.91
2018-06-18T21:08:24.739Z,21.91
2018-06-18T21:10:55.239Z,21.90
2018-06-18T21:13:26.232Z,21.87
2018-06-18T21:15:56.608Z,21.84
2018-06-18T21:18:27.035Z,21.82
2018-06-18T21:20:57.296Z,21.88
2018-06-18T21:23:27.464Z,21.89
2018-06-18T21:25:57.112Z,21.87
2018-06-18T21:28:27.216Z,21.82
2018-06-18T21:30:56.381Z,21.70
2018-06-18T21:33:25.484Z,21.61
2018-06-18T21:35:54.645Z,21.65
2018-06-18T21:38:23.803Z,21.71
2018-06-18T21:40:52.904Z,21.74
2018-06-18T21:43:21.980Z,21.70
2018-06-18T21:45:51.091Z,21.52
2018-06-18T21:48:20.168Z,21.51
2018-06-18T21:50:49.268Z,21.46
2018-06-18T21:53:18.328Z,21.45
2018-06-18T21:55:47.488Z,21.44
2018-06-18T21:58:16.539Z,21.45
2018-06-18T22:00:48.042Z,21.39
2018-06-18T22:03:17.228Z,21.31
2018-06-18T22:05:46.413Z,21.23
2018-06-18T22:08:17.305Z,21.22
2018-06-18T22:10:46.444Z,21.19
2018-06-18T22:13:15.480Z,21.19
2018-06-18T22:15:44.580Z,21.20
2018-06-18T22:18:13.656Z,21.19
2018-06-18T22:20:42.756Z,21.12
2018-06-18T22:23:11.827Z,21.05
2018-06-18T22:25:40.956Z,21.02
2018-06-18T22:28:20.440Z,20.89
2018-06-18T22:30:49.532Z,20.91
2018-06-18T22:33:18.612Z,20.88
2018-06-18T22:35:47.713Z,20.91
2018-06-18T22:38:16.812Z,20.94
2018-06-18T22:40:45.907Z,20.80
2018-06-18T22:43:14.988Z,20.87
2018-06-18T22:45:44.103Z,20.79
2018-06-18T22:48:13.188Z,20.76
2018-06-18T22:50:42.285Z,20.73
2018-06-18T22:53:11.368Z,20.63
2018-06-18T22:55:40.472Z,20.68
2018-06-18T22:58:09.591Z,20.66
2018-06-18T23:00:38.624Z,20.63
2018-06-18T23:03:07.724Z,20.74
2018-06-18T23:05:36.804Z,20.67
2018-06-18T23:08:05.908Z,20.65
2018-06-18T23:10:34.972Z,20.62
2018-06-18T23:13:04.072Z,20.52
2018-06-18T23:15:33.156Z,20.53
2018-06-18T23:18:02.251Z,20.48
2018-06-18T23:20:31.336Z,20.42
2018-06-18T23:23:00.487Z,20.41
2018-06-18T23:25:29.548Z,20.39
2018-06-18T23:27:58.644Z,20.30
2018-06-18T23:30:27.720Z,20.34
2018-06-18T23:32:56.811Z,20.30
2018-06-18T23:35:25.891Z,20.28
2018-06-18T23:37:54.989Z,20.10
2018-06-18T23:40:24.068Z,20.14
2018-06-18T23:42:53.164Z,20.09
2018-06-18T23:45:22.256Z,20.08
2018-06-18T23:47:51.395Z,20.04
2018-06-18T23:50:20.481Z,20.03
2018-06-18T23:52:49.584Z,19.99
2018-06-18T23:55:18.675Z,19.93
2018-06-18T23:57:47.822Z,19.89
